sensor_id;sensor_type;location;lat;lon;timestamp;P1;durP1;ratioP1;P2;durP2;ratioP2
10007;SDS011;5043;41.766;26.204;2023-05-10T00:00:11;5.00;;;3.65;;
10007;SDS011;5043;41.766;26.204;2023-05-10T00:02:37;5.97;;;4.43;;
10007;SDS011;5043;41.766;26.204;2023-05-10T00:05:03;8.65;;;3.90;;
10007;SDS011;5043;41.766;26.204;2023-05-10T00:07:30;4.78;;;3.88;;
10007;SDS011;5043;41.766;26.204;2023-05-10T00:09:55;5.75;;;3.85;;
10007;SDS011;5043;41.766;26.204;2023-05-10T00:12:21;8.82;;;4.53;;
10007;SDS011;5043;41.766;26.204;2023-05-10T00:14:47;6.90;;;4.40;;
10007;SDS011;5043;41.766;26.204;2023-05-10T00:17:13;4.43;;;3.75;;
10007;SDS011;5043;41.766;26.204;2023-05-10T00:19:40;6.45;;;4.63;;
10007;SDS011;5043;41.766;26.204;2023-05-10T00:22:05;4.90;;;4.05;;
10007;SDS011;5043;41.766;26.204;2023-05-10T00:24:31;7.68;;;3.80;;
10007;SDS011;5043;41.766;26.204;2023-05-10T00:26:56;5.68;;;4.20;;
10007;SDS011;5043;41.766;26.204;2023-05-10T00:29:22;5.18;;;3.95;;
10007;SDS011;5043;41.766;26.204;2023-05-10T00:31:47;6.22;;;4.78;;
10007;SDS011;5043;41.766;26.204;2023-05-10T00:34:13;6.45;;;4.20;;
10007;SDS011;5043;41.766;26.204;2023-05-10T00:36:38;6.32;;;4.88;;
10007;SDS011;5043;41.766;26.204;2023-05-10T00:39:04;4.80;;;4.40;;
10007;SDS011;5043;41.766;26.204;2023-05-10T00:41:29;5.10;;;4.60;;
10007;SDS011;5043;41.766;26.204;2023-05-10T00:43:57;6.40;;;4.40;;
10007;SDS011;5043;41.766;26.204;2023-05-10T00:46:23;5.47;;;4.15;;
10007;SDS011;5043;41.766;26.204;2023-05-10T00:48:49;5.22;;;4.40;;
10007;SDS011;5043;41.766;26.204;2023-05-10T00:51:15;10.30;;;4.80;;
10007;SDS011;5043;41.766;26.204;2023-05-10T00:53:41;7.80;;;4.72;;
10007;SDS011;5043;41.766;26.204;2023-05-10T00:56:06;6.45;;;4.85;;
10007;SDS011;5043;41.766;26.204;2023-05-10T00:58:32;4.93;;;4.05;;
10007;SDS011;5043;41.766;26.204;2023-05-10T01:00:58;11.32;;;4.53;;
10007;SDS011;5043;41.766;26.204;2023-05-10T01:03:24;4.95;;;4.18;;
10007;SDS011;5043;41.766;26.204;2023-05-10T01:05:50;5.75;;;4.50;;
10007;SDS011;5043;41.766;26.204;2023-05-10T01:08:15;6.78;;;4.35;;
10007;SDS011;5043;41.766;26.204;2023-05-10T01:10:41;9.20;;;4.68;;
10007;SDS011;5043;41.766;26.204;2023-05-10T01:13:07;5.75;;;4.00;;
10007;SDS011;5043;41.766;26.204;2023-05-10T01:15:33;8.18;;;4.25;;
10007;SDS011;5043;41.766;26.204;2023-05-10T01:17:59;8.85;;;4.43;;
10007;SDS011;5043;41.766;26.204;2023-05-10T01:20:25;8.30;;;4.35;;
10007;SDS011;5043;41.766;26.204;2023-05-10T01:23:04;6.53;;;4.10;;
10007;SDS011;5043;41.766;26.204;2023-05-10T01:26:07;9.57;;;5.05;;
10007;SDS011;5043;41.766;26.204;2023-05-10T01:34:09;5.60;;;4.35;;
10007;SDS011;5043;41.766;26.204;2023-05-10T01:36:45;5.47;;;4.10;;
10007;SDS011;5043;41.766;26.204;2023-05-10T01:39:32;13.15;;;4.13;;
10007;SDS011;5043;41.766;26.204;2023-05-10T01:42:10;6.22;;;4.80;;
10007;SDS011;5043;41.766;26.204;2023-05-10T01:49:56;5.22;;;4.53;;
10007;SDS011;5043;41.766;26.204;2023-05-10T01:52:32;5.88;;;4.68;;
10007;SDS011;5043;41.766;26.204;2023-05-10T01:55:02;9.73;;;4.38;;
10007;SDS011;5043;41.766;26.204;2023-05-10T01:57:37;10.30;;;5.00;;
10007;SDS011;5043;41.766;26.204;2023-05-10T02:00:07;10.27;;;5.15;;
10007;SDS011;5043;41.766;26.204;2023-05-10T02:02:38;10.30;;;4.95;;
10007;SDS011;5043;41.766;26.204;2023-05-10T02:05:07;10.07;;;4.45;;
10007;SDS011;5043;41.766;26.204;2023-05-10T02:07:35;8.30;;;4.50;;
10007;SDS011;5043;41.766;26.204;2023-05-10T02:10:02;8.10;;;4.75;;
10007;SDS011;5043;41.766;26.204;2023-05-10T02:12:31;5.68;;;4.63;;
10007;SDS011;5043;41.766;26.204;2023-05-10T02:15:02;6.15;;;4.13;;
10007;SDS011;5043;41.766;26.204;2023-05-10T02:17:31;8.30;;;4.30;;
10007;SDS011;5043;41.766;26.204;2023-05-10T02:19:58;5.30;;;4.50;;
10007;SDS011;5043;41.766;26.204;2023-05-10T02:22:26;8.68;;;4.20;;
10007;SDS011;5043;41.766;26.204;2023-05-10T02:24:54;9.65;;;5.35;;
10007;SDS011;5043;41.766;26.204;2023-05-10T02:27:23;5.63;;;4.43;;
10007;SDS011;5043;41.766;26.204;2023-05-10T02:29:49;6.78;;;4.43;;
10007;SDS011;5043;41.766;26.204;2023-05-10T02:32:17;6.90;;;4.55;;
10007;SDS011;5043;41.766;26.204;2023-05-10T02:34:43;11.98;;;4.40;;
10007;SDS011;5043;41.766;26.204;2023-05-10T02:37:11;5.13;;;4.53;;
10007;SDS011;5043;41.766;26.204;2023-05-10T02:39:43;7.53;;;4.07;;
10007;SDS011;5043;41.766;26.204;2023-05-10T02:42:15;10.20;;;4.28;;
10007;SDS011;5043;41.766;26.204;2023-05-10T02:44:43;5.63;;;4.07;;
10007;SDS011;5043;41.766;26.204;2023-05-10T02:47:12;10.98;;;4.68;;
10007;SDS011;5043;41.766;26.204;2023-05-10T02:49:38;5.97;;;4.40;;
10007;SDS011;5043;41.766;26.204;2023-05-10T02:52:05;6.80;;;4.38;;
10007;SDS011;5043;41.766;26.204;2023-05-10T02:54:35;12.55;;;5.30;;
10007;SDS011;5043;41.766;26.204;2023-05-10T02:57:06;9.45;;;4.80;;
10007;SDS011;5043;41.766;26.204;2023-05-10T02:59:34;10.32;;;4.57;;
10007;SDS011;5043;41.766;26.204;2023-05-10T03:02:00;14.00;;;4.65;;
10007;SDS011;5043;41.766;26.204;2023-05-10T03:04:27;7.65;;;4.25;;
10007;SDS011;5043;41.766;26.204;2023-05-10T03:06:52;10.35;;;4.90;;
10007;SDS011;5043;41.766;26.204;2023-05-10T03:09:18;7.03;;;4.70;;
10007;SDS011;5043;41.766;26.204;2023-05-10T03:11:55;10.32;;;4.22;;
10007;SDS011;5043;41.766;26.204;2023-05-10T03:20:35;13.95;;;4.72;;
10007;SDS011;5043;41.766;26.204;2023-05-10T03:25:55;7.72;;;3.80;;
10007;SDS011;5043;41.766;26.204;2023-05-10T03:28:20;6.53;;;4.15;;
10007;SDS011;5043;41.766;26.204;2023-05-10T03:30:46;7.05;;;3.70;;
10007;SDS011;5043;41.766;26.204;2023-05-10T03:33:12;5.57;;;4.15;;
10007;SDS011;5043;41.766;26.204;2023-05-10T03:35:39;9.80;;;4.47;;
10007;SDS011;5043;41.766;26.204;2023-05-10T03:38:05;6.05;;;4.65;;
10007;SDS011;5043;41.766;26.204;2023-05-10T03:40:30;4.63;;;3.88;;
10007;SDS011;5043;41.766;26.204;2023-05-10T03:42:57;12.35;;;4.50;;
10007;SDS011;5043;41.766;26.204;2023-05-10T03:45:23;4.70;;;3.80;;
10007;SDS011;5043;41.766;26.204;2023-05-10T03:47:49;9.05;;;4.55;;
10007;SDS011;5043;41.766;26.204;2023-05-10T03:50:14;8.68;;;4.30;;
10007;SDS011;5043;41.766;26.204;2023-05-10T03:52:39;9.98;;;4.00;;
10007;SDS011;5043;41.766;26.204;2023-05-10T03:55:05;5.82;;;4.50;;
10007;SDS011;5043;41.766;26.204;2023-05-10T03:57:31;6.93;;;4.25;;
10007;SDS011;5043;41.766;26.204;2023-05-10T03:59:57;6.78;;;3.83;;
10007;SDS011;5043;41.766;26.204;2023-05-10T04:02:22;4.57;;;4.18;;
10007;SDS011;5043;41.766;26.204;2023-05-10T04:04:48;9.73;;;4.57;;
10007;SDS011;5043;41.766;26.204;2023-05-10T04:07:13;5.10;;;3.97;;
10007;SDS011;5043;41.766;26.204;2023-05-10T04:09:39;7.63;;;4.32;;
10007;SDS011;5043;41.766;26.204;2023-05-10T04:12:04;5.47;;;4.40;;
10007;SDS011;5043;41.766;26.204;2023-05-10T04:14:30;9.27;;;4.28;;
10007;SDS011;5043;41.766;26.204;2023-05-10T04:16:56;6.60;;;4.90;;
10007;SDS011;5043;41.766;26.204;2023-05-10T04:19:21;8.55;;;4.78;;
10007;SDS011;5043;41.766;26.204;2023-05-10T04:21:46;9.50;;;4.70;;
10007;SDS011;5043;41.766;26.204;2023-05-10T04:24:12;12.23;;;5.53;;
10007;SDS011;5043;41.766;26.204;2023-05-10T04:26:37;7.57;;;4.20;;
10007;SDS011;5043;41.766;26.204;2023-05-10T04:29:03;4.25;;;3.25;;
10007;SDS011;5043;41.766;26.204;2023-05-10T04:31:28;4.88;;;3.67;;
10007;SDS011;5043;41.766;26.204;2023-05-10T04:33:53;5.32;;;3.80;;
10007;SDS011;5043;41.766;26.204;2023-05-10T04:36:19;6.07;;;3.33;;
10007;SDS011;5043;41.766;26.204;2023-05-10T04:38:44;4.65;;;2.80;;
10007;SDS011;5043;41.766;26.204;2023-05-10T04:41:10;7.07;;;3.53;;
10007;SDS011;5043;41.766;26.204;2023-05-10T04:43:36;4.15;;;3.50;;
10007;SDS011;5043;41.766;26.204;2023-05-10T04:46:03;3.60;;;3.17;;
10007;SDS011;5043;41.766;26.204;2023-05-10T04:48:29;5.32;;;3.53;;
10007;SDS011;5043;41.766;26.204;2023-05-10T04:50:54;7.13;;;3.83;;
10007;SDS011;5043;41.766;26.204;2023-05-10T04:53:20;5.57;;;3.25;;
10007;SDS011;5043;41.766;26.204;2023-05-10T04:55:46;5.43;;;3.13;;
10007;SDS011;5043;41.766;26.204;2023-05-10T04:58:11;6.70;;;3.97;;
10007;SDS011;5043;41.766;26.204;2023-05-10T05:00:37;16.13;;;3.20;;
10007;SDS011;5043;41.766;26.204;2023-05-10T05:03:02;8.20;;;3.65;;
10007;SDS011;5043;41.766;26.204;2023-05-10T05:05:28;4.57;;;2.75;;
10007;SDS011;5043;41.766;26.204;2023-05-10T05:07:53;5.07;;;2.67;;
10007;SDS011;5043;41.766;26.204;2023-05-10T05:10:19;6.60;;;3.20;;
10007;SDS011;5043;41.766;26.204;2023-05-10T05:12:44;5.53;;;2.83;;
10007;SDS011;5043;41.766;26.204;2023-05-10T05:15:10;5.10;;;2.50;;
10007;SDS011;5043;41.766;26.204;2023-05-10T05:17:35;5.88;;;3.60;;
10007;SDS011;5043;41.766;26.204;2023-05-10T05:20:01;6.95;;;5.25;;
10007;SDS011;5043;41.766;26.204;2023-05-10T05:22:26;3.92;;;2.58;;
10007;SDS011;5043;41.766;26.204;2023-05-10T05:24:56;4.30;;;2.60;;
10007;SDS011;5043;41.766;26.204;2023-05-10T05:27:23;8.30;;;2.58;;
10007;SDS011;5043;41.766;26.204;2023-05-10T05:29:52;5.78;;;2.80;;
10007;SDS011;5043;41.766;26.204;2023-05-10T05:32:20;6.57;;;2.45;;
10007;SDS011;5043;41.766;26.204;2023-05-10T05:34:46;3.42;;;2.20;;
10007;SDS011;5043;41.766;26.204;2023-05-10T05:37:13;7.03;;;4.38;;
10007;SDS011;5043;41.766;26.204;2023-05-10T05:39:46;6.80;;;3.20;;
10007;SDS011;5043;41.766;26.204;2023-05-10T05:42:12;8.80;;;6.00;;
10007;SDS011;5043;41.766;26.204;2023-05-10T05:44:38;5.10;;;2.80;;
10007;SDS011;5043;41.766;26.204;2023-05-10T05:47:05;3.85;;;2.75;;
10007;SDS011;5043;41.766;26.204;2023-05-10T05:49:30;4.93;;;3.25;;
10007;SDS011;5043;41.766;26.204;2023-05-10T05:52:02;5.22;;;3.08;;
10007;SDS011;5043;41.766;26.204;2023-05-10T05:54:28;3.58;;;2.45;;
10007;SDS011;5043;41.766;26.204;2023-05-10T05:56:55;5.97;;;3.67;;
10007;SDS011;5043;41.766;26.204;2023-05-10T05:59:25;6.55;;;4.10;;
10007;SDS011;5043;41.766;26.204;2023-05-10T06:01:51;6.32;;;3.13;;
10007;SDS011;5043;41.766;26.204;2023-05-10T06:04:17;4.20;;;2.10;;
10007;SDS011;5043;41.766;26.204;2023-05-10T06:06:43;2.97;;;2.20;;
10007;SDS011;5043;41.766;26.204;2023-05-10T06:09:09;2.97;;;2.53;;
10007;SDS011;5043;41.766;26.204;2023-05-10T06:11:35;5.18;;;2.90;;
10007;SDS011;5043;41.766;26.204;2023-05-10T06:14:01;5.90;;;2.78;;
10007;SDS011;5043;41.766;26.204;2023-05-10T06:16:33;3.00;;;2.58;;
10007;SDS011;5043;41.766;26.204;2023-05-10T06:18:59;8.38;;;6.03;;
10007;SDS011;5043;41.766;26.204;2023-05-10T06:21:24;3.92;;;2.42;;
10007;SDS011;5043;41.766;26.204;2023-05-10T06:23:50;3.55;;;2.15;;
10007;SDS011;5043;41.766;26.204;2023-05-10T06:26:16;2.67;;;1.75;;
10007;SDS011;5043;41.766;26.204;2023-05-10T06:28:41;2.70;;;2.20;;
10007;SDS011;5043;41.766;26.204;2023-05-10T06:31:07;5.18;;;2.25;;
10007;SDS011;5043;41.766;26.204;2023-05-10T06:33:33;6.65;;;3.28;;
10007;SDS011;5043;41.766;26.204;2023-05-10T06:35:58;4.32;;;2.60;;
10007;SDS011;5043;41.766;26.204;2023-05-10T06:38:24;9.00;;;2.17;;
10007;SDS011;5043;41.766;26.204;2023-05-10T06:40:50;3.25;;;1.92;;
10007;SDS011;5043;41.766;26.204;2023-05-10T06:43:16;3.92;;;2.10;;
10007;SDS011;5043;41.766;26.204;2023-05-10T06:45:42;7.43;;;2.65;;
10007;SDS011;5043;41.766;26.204;2023-05-10T06:48:07;3.15;;;2.35;;
10007;SDS011;5043;41.766;26.204;2023-05-10T06:50:33;2.70;;;2.50;;
10007;SDS011;5043;41.766;26.204;2023-05-10T06:52:59;8.02;;;2.53;;
10007;SDS011;5043;41.766;26.204;2023-05-10T06:55:25;6.78;;;2.65;;
10007;SDS011;5043;41.766;26.204;2023-05-10T06:57:51;5.10;;;2.50;;
10007;SDS011;5043;41.766;26.204;2023-05-10T07:00:18;7.18;;;3.38;;
10007;SDS011;5043;41.766;26.204;2023-05-10T07:02:43;5.28;;;3.28;;
10007;SDS011;5043;41.766;26.204;2023-05-10T07:05:09;2.90;;;2.45;;
10007;SDS011;5043;41.766;26.204;2023-05-10T07:07:35;4.22;;;2.30;;
10007;SDS011;5043;41.766;26.204;2023-05-10T07:10:00;8.00;;;2.75;;
10007;SDS011;5043;41.766;26.204;2023-05-10T07:12:26;4.80;;;3.10;;
10007;SDS011;5043;41.766;26.204;2023-05-10T07:14:52;4.93;;;2.33;;
10007;SDS011;5043;41.766;26.204;2023-05-10T07:17:17;4.75;;;2.92;;
10007;SDS011;5043;41.766;26.204;2023-05-10T07:19:43;4.03;;;2.38;;
10007;SDS011;5043;41.766;26.204;2023-05-10T07:22:09;4.18;;;2.22;;
10007;SDS011;5043;41.766;26.204;2023-05-10T07:24:34;3.72;;;2.15;;
10007;SDS011;5043;41.766;26.204;2023-05-10T07:27:00;4.85;;;2.33;;
10007;SDS011;5043;41.766;26.204;2023-05-10T07:29:25;4.35;;;2.45;;
10007;SDS011;5043;41.766;26.204;2023-05-10T07:31:51;10.95;;;2.90;;
10007;SDS011;5043;41.766;26.204;2023-05-10T07:34:16;5.28;;;3.05;;
10007;SDS011;5043;41.766;26.204;2023-05-10T07:36:42;11.27;;;3.85;;
10007;SDS011;5043;41.766;26.204;2023-05-10T07:39:08;4.82;;;2.72;;
10007;SDS011;5043;41.766;26.204;2023-05-10T07:41:33;4.47;;;2.45;;
10007;SDS011;5043;41.766;26.204;2023-05-10T07:43:59;8.98;;;2.70;;
10007;SDS011;5043;41.766;26.204;2023-05-10T07:46:24;3.20;;;2.40;;
10007;SDS011;5043;41.766;26.204;2023-05-10T07:48:49;3.40;;;2.20;;
10007;SDS011;5043;41.766;26.204;2023-05-10T07:51:15;3.05;;;2.35;;
10007;SDS011;5043;41.766;26.204;2023-05-10T07:53:40;3.33;;;2.80;;
10007;SDS011;5043;41.766;26.204;2023-05-10T07:58:52;2.50;;;2.30;;
10007;SDS011;5043;41.766;26.204;2023-05-10T08:01:19;4.93;;;3.40;;
10007;SDS011;5043;41.766;26.204;2023-05-10T08:03:45;9.48;;;7.50;;
10007;SDS011;5043;41.766;26.204;2023-05-10T08:06:10;5.70;;;3.53;;
10007;SDS011;5043;41.766;26.204;2023-05-10T08:08:36;6.38;;;2.35;;
10007;SDS011;5043;41.766;26.204;2023-05-10T08:11:01;9.27;;;3.05;;
10007;SDS011;5043;41.766;26.204;2023-05-10T08:13:28;3.95;;;2.80;;
10007;SDS011;5043;41.766;26.204;2023-05-10T08:15:53;6.75;;;2.53;;
10007;SDS011;5043;41.766;26.204;2023-05-10T08:18:19;12.65;;;7.13;;
10007;SDS011;5043;41.766;26.204;2023-05-10T08:20:44;5.55;;;2.80;;
10007;SDS011;5043;41.766;26.204;2023-05-10T08:23:11;5.93;;;2.05;;
10007;SDS011;5043;41.766;26.204;2023-05-10T08:25:37;3.17;;;1.85;;
10007;SDS011;5043;41.766;26.204;2023-05-10T08:28:03;6.30;;;3.10;;
10007;SDS011;5043;41.766;26.204;2023-05-10T08:30:28;4.03;;;1.88;;
10007;SDS011;5043;41.766;26.204;2023-05-10T08:32:54;4.53;;;2.97;;
10007;SDS011;5043;41.766;26.204;2023-05-10T08:35:19;10.88;;;4.65;;
10007;SDS011;5043;41.766;26.204;2023-05-10T08:37:45;14.73;;;8.35;;
10007;SDS011;5043;41.766;26.204;2023-05-10T08:40:11;7.97;;;3.70;;
10007;SDS011;5043;41.766;26.204;2023-05-10T08:42:36;5.05;;;3.08;;
10007;SDS011;5043;41.766;26.204;2023-05-10T08:45:07;6.28;;;2.85;;
10007;SDS011;5043;41.766;26.204;2023-05-10T08:47:34;4.20;;;1.90;;
10007;SDS011;5043;41.766;26.204;2023-05-10T08:50:02;3.55;;;2.13;;
10007;SDS011;5043;41.766;26.204;2023-05-10T08:52:29;6.78;;;1.92;;
10007;SDS011;5043;41.766;26.204;2023-05-10T08:54:56;6.85;;;2.83;;
10007;SDS011;5043;41.766;26.204;2023-05-10T08:57:21;7.97;;;2.40;;
10007;SDS011;5043;41.766;26.204;2023-05-10T08:59:47;5.72;;;2.10;;
10007;SDS011;5043;41.766;26.204;2023-05-10T09:02:13;4.95;;;2.17;;
10007;SDS011;5043;41.766;26.204;2023-05-10T09:04:39;3.08;;;1.85;;
10007;SDS011;5043;41.766;26.204;2023-05-10T09:07:05;3.38;;;2.10;;
10007;SDS011;5043;41.766;26.204;2023-05-10T09:09:31;3.70;;;2.00;;
10007;SDS011;5043;41.766;26.204;2023-05-10T09:11:58;2.13;;;1.92;;
10007;SDS011;5043;41.766;26.204;2023-05-10T09:14:23;2.22;;;2.00;;
10007;SDS011;5043;41.766;26.204;2023-05-10T09:16:50;2.17;;;1.98;;
10007;SDS011;5043;41.766;26.204;2023-05-10T09:19:15;4.88;;;2.22;;
10007;SDS011;5043;41.766;26.204;2023-05-10T09:21:41;2.47;;;1.83;;
10007;SDS011;5043;41.766;26.204;2023-05-10T09:24:07;1.98;;;1.88;;
10007;SDS011;5043;41.766;26.204;2023-05-10T09:26:34;4.40;;;2.28;;
10007;SDS011;5043;41.766;26.204;2023-05-10T09:29:00;12.13;;;9.15;;
10007;SDS011;5043;41.766;26.204;2023-05-10T09:34:31;2.38;;;1.98;;
10007;SDS011;5043;41.766;26.204;2023-05-10T09:36:58;5.63;;;2.00;;
10007;SDS011;5043;41.766;26.204;2023-05-10T09:39:36;5.28;;;2.53;;
10007;SDS011;5043;41.766;26.204;2023-05-10T09:42:06;6.13;;;2.38;;
10007;SDS011;5043;41.766;26.204;2023-05-10T09:44:35;2.72;;;1.92;;
10007;SDS011;5043;41.766;26.204;2023-05-10T09:47:01;3.45;;;1.75;;
10007;SDS011;5043;41.766;26.204;2023-05-10T09:49:27;4.25;;;2.35;;
10007;SDS011;5043;41.766;26.204;2023-05-10T09:52:02;4.95;;;2.80;;
10007;SDS011;5043;41.766;26.204;2023-05-10T09:54:29;4.28;;;2.10;;
10007;SDS011;5043;41.766;26.204;2023-05-10T09:56:55;2.88;;;2.20;;
10007;SDS011;5043;41.766;26.204;2023-05-10T09:59:21;7.03;;;2.58;;
10007;SDS011;5043;41.766;26.204;2023-05-10T10:01:50;2.65;;;1.73;;
10007;SDS011;5043;41.766;26.204;2023-05-10T10:04:16;3.33;;;2.20;;
10007;SDS011;5043;41.766;26.204;2023-05-10T10:06:42;2.85;;;2.13;;
10007;SDS011;5043;41.766;26.204;2023-05-10T10:09:08;3.38;;;1.85;;
10007;SDS011;5043;41.766;26.204;2023-05-10T10:11:35;5.88;;;1.92;;
10007;SDS011;5043;41.766;26.204;2023-05-10T10:14:01;4.20;;;2.08;;
10007;SDS011;5043;41.766;26.204;2023-05-10T10:16:28;4.75;;;1.77;;
10007;SDS011;5043;41.766;26.204;2023-05-10T10:18:56;3.22;;;1.63;;
10007;SDS011;5043;41.766;26.204;2023-05-10T10:21:22;1.83;;;1.58;;
10007;SDS011;5043;41.766;26.204;2023-05-10T10:23:49;3.85;;;1.52;;
10007;SDS011;5043;41.766;26.204;2023-05-10T10:26:15;3.45;;;1.70;;
10007;SDS011;5043;41.766;26.204;2023-05-10T10:31:32;6.20;;;2.13;;
10007;SDS011;5043;41.766;26.204;2023-05-10T10:34:08;5.63;;;2.05;;
10007;SDS011;5043;41.766;26.204;2023-05-10T10:36:43;3.85;;;1.52;;
10007;SDS011;5043;41.766;26.204;2023-05-10T10:39:11;1.77;;;1.67;;
10007;SDS011;5043;41.766;26.204;2023-05-10T10:44:24;3.50;;;2.08;;
10007;SDS011;5043;41.766;26.204;2023-05-10T10:49:38;4.40;;;1.75;;
10007;SDS011;5043;41.766;26.204;2023-05-10T10:52:25;2.30;;;1.65;;
10007;SDS011;5043;41.766;26.204;2023-05-10T10:54:58;10.70;;;8.52;;
10007;SDS011;5043;41.766;26.204;2023-05-10T10:57:52;5.35;;;4.55;;
10007;SDS011;5043;41.766;26.204;2023-05-10T11:00:26;6.18;;;2.92;;
10007;SDS011;5043;41.766;26.204;2023-05-10T11:02:59;2.67;;;1.70;;
10007;SDS011;5043;41.766;26.204;2023-05-10T11:08:13;5.65;;;1.65;;
10007;SDS011;5043;41.766;26.204;2023-05-10T11:13:28;2.38;;;1.40;;
10007;SDS011;5043;41.766;26.204;2023-05-10T11:15:55;2.85;;;1.40;;
10007;SDS011;5043;41.766;26.204;2023-05-10T11:18:25;1.90;;;1.38;;
10007;SDS011;5043;41.766;26.204;2023-05-10T11:20:52;4.72;;;1.88;;
10007;SDS011;5043;41.766;26.204;2023-05-10T11:23:21;1.90;;;1.10;;
10007;SDS011;5043;41.766;26.204;2023-05-10T11:25:48;5.78;;;2.05;;
10007;SDS011;5043;41.766;26.204;2023-05-10T11:28:16;6.72;;;1.80;;
10007;SDS011;5043;41.766;26.204;2023-05-10T11:30:43;2.13;;;1.48;;
10007;SDS011;5043;41.766;26.204;2023-05-10T11:33:11;3.30;;;1.63;;
10007;SDS011;5043;41.766;26.204;2023-05-10T11:35:40;2.70;;;1.40;;
10007;SDS011;5043;41.766;26.204;2023-05-10T11:38:06;2.03;;;1.45;;
10007;SDS011;5043;41.766;26.204;2023-05-10T11:40:36;2.35;;;1.70;;
10007;SDS011;5043;41.766;26.204;2023-05-10T11:43:02;3.72;;;1.75;;
10007;SDS011;5043;41.766;26.204;2023-05-10T11:45:29;2.65;;;1.50;;
10007;SDS011;5043;41.766;26.204;2023-05-10T11:47:58;2.22;;;1.40;;
10007;SDS011;5043;41.766;26.204;2023-05-10T11:50:24;2.25;;;1.55;;
10007;SDS011;5043;41.766;26.204;2023-05-10T11:52:54;2.30;;;1.40;;
10007;SDS011;5043;41.766;26.204;2023-05-10T11:55:21;1.80;;;1.38;;
10007;SDS011;5043;41.766;26.204;2023-05-10T11:57:47;1.80;;;1.40;;
10007;SDS011;5043;41.766;26.204;2023-05-10T12:00:16;1.75;;;1.20;;
10007;SDS011;5043;41.766;26.204;2023-05-10T12:02:41;2.78;;;1.50;;
10007;SDS011;5043;41.766;26.204;2023-05-10T12:05:07;4.00;;;1.48;;
10007;SDS011;5043;41.766;26.204;2023-05-10T12:07:34;1.55;;;1.40;;
10007;SDS011;5043;41.766;26.204;2023-05-10T12:10:06;2.70;;;1.20;;
10007;SDS011;5043;41.766;26.204;2023-05-10T12:12:43;1.10;;;1.00;;
10007;SDS011;5043;41.766;26.204;2023-05-10T12:15:20;1.30;;;1.20;;
10007;SDS011;5043;41.766;26.204;2023-05-10T12:17:47;4.20;;;1.52;;
10007;SDS011;5043;41.766;26.204;2023-05-10T12:20:23;1.80;;;1.67;;
10007;SDS011;5043;41.766;26.204;2023-05-10T12:22:55;3.38;;;1.80;;
10007;SDS011;5043;41.766;26.204;2023-05-10T12:25:23;1.63;;;1.30;;
10007;SDS011;5043;41.766;26.204;2023-05-10T12:27:55;3.45;;;1.35;;
10007;SDS011;5043;41.766;26.204;2023-05-10T12:30:25;2.25;;;1.58;;
10007;SDS011;5043;41.766;26.204;2023-05-10T12:32:51;1.73;;;1.55;;
10007;SDS011;5043;41.766;26.204;2023-05-10T12:35:18;2.10;;;1.90;;
10007;SDS011;5043;41.766;26.204;2023-05-10T12:37:49;3.15;;;1.75;;
10007;SDS011;5043;41.766;26.204;2023-05-10T12:40:15;3.28;;;1.83;;
10007;SDS011;5043;41.766;26.204;2023-05-10T12:42:41;2.33;;;1.73;;
10007;SDS011;5043;41.766;26.204;2023-05-10T12:45:07;3.10;;;1.83;;
10007;SDS011;5043;41.766;26.204;2023-05-10T12:47:34;3.00;;;1.73;;
10007;SDS011;5043;41.766;26.204;2023-05-10T12:50:00;3.55;;;3.20;;
10007;SDS011;5043;41.766;26.204;2023-05-10T12:52:27;1.52;;;1.42;;
10007;SDS011;5043;41.766;26.204;2023-05-10T12:54:53;3.08;;;1.63;;
10007;SDS011;5043;41.766;26.204;2023-05-10T12:57:19;1.45;;;1.35;;
10007;SDS011;5043;41.766;26.204;2023-05-10T12:59:45;1.88;;;1.35;;
10007;SDS011;5043;41.766;26.204;2023-05-10T13:02:11;1.73;;;1.52;;
10007;SDS011;5043;41.766;26.204;2023-05-10T13:04:36;2.67;;;1.50;;
10007;SDS011;5043;41.766;26.204;2023-05-10T13:07:05;3.53;;;1.67;;
10007;SDS011;5043;41.766;26.204;2023-05-10T13:09:31;3.72;;;1.73;;
10007;SDS011;5043;41.766;26.204;2023-05-10T13:11:57;3.78;;;1.77;;
10007;SDS011;5043;41.766;26.204;2023-05-10T13:14:23;1.60;;;1.50;;
10007;SDS011;5043;41.766;26.204;2023-05-10T13:16:49;3.47;;;2.45;;
10007;SDS011;5043;41.766;26.204;2023-05-10T13:19:15;5.57;;;3.53;;
10007;SDS011;5043;41.766;26.204;2023-05-10T13:21:41;2.90;;;2.47;;
10007;SDS011;5043;41.766;26.204;2023-05-10T13:24:07;5.35;;;3.42;;
10007;SDS011;5043;41.766;26.204;2023-05-10T13:26:33;1.95;;;1.65;;
10007;SDS011;5043;41.766;26.204;2023-05-10T13:28:59;1.58;;;1.30;;
10007;SDS011;5043;41.766;26.204;2023-05-10T13:31:24;2.10;;;1.90;;
10007;SDS011;5043;41.766;26.204;2023-05-10T13:33:50;1.80;;;1.63;;
10007;SDS011;5043;41.766;26.204;2023-05-10T13:36:15;2.00;;;1.40;;
10007;SDS011;5043;41.766;26.204;2023-05-10T13:38:41;13.38;;;1.90;;
10007;SDS011;5043;41.766;26.204;2023-05-10T13:41:06;2.03;;;1.50;;
10007;SDS011;5043;41.766;26.204;2023-05-10T13:43:32;1.65;;;1.50;;
10007;SDS011;5043;41.766;26.204;2023-05-10T13:45:57;2.13;;;1.60;;
10007;SDS011;5043;41.766;26.204;2023-05-10T13:48:22;2.30;;;1.63;;
10007;SDS011;5043;41.766;26.204;2023-05-10T13:50:48;1.63;;;1.52;;
10007;SDS011;5043;41.766;26.204;2023-05-10T13:53:13;3.30;;;1.55;;
10007;SDS011;5043;41.766;26.204;2023-05-10T13:59:01;2.67;;;1.65;;
10007;SDS011;5043;41.766;26.204;2023-05-10T14:01:26;2.38;;;1.40;;
10007;SDS011;5043;41.766;26.204;2023-05-10T14:03:52;2.45;;;1.60;;
10007;SDS011;5043;41.766;26.204;2023-05-10T14:06:17;3.22;;;1.30;;
10007;SDS011;5043;41.766;26.204;2023-05-10T14:08:43;2.25;;;1.30;;
10007;SDS011;5043;41.766;26.204;2023-05-10T14:11:08;2.40;;;2.20;;
10007;SDS011;5043;41.766;26.204;2023-05-10T14:13:34;11.27;;;9.65;;
10007;SDS011;5043;41.766;26.204;2023-05-10T14:15:59;1.95;;;1.40;;
10007;SDS011;5043;41.766;26.204;2023-05-10T14:18:28;1.73;;;1.30;;
10007;SDS011;5043;41.766;26.204;2023-05-10T14:20:54;15.13;;;1.98;;
10007;SDS011;5043;41.766;26.204;2023-05-10T14:23:21;2.33;;;1.52;;
10007;SDS011;5043;41.766;26.204;2023-05-10T14:25:51;3.00;;;1.50;;
10007;SDS011;5043;41.766;26.204;2023-05-10T14:28:17;6.35;;;1.80;;
10007;SDS011;5043;41.766;26.204;2023-05-10T14:30:46;1.85;;;1.40;;
10007;SDS011;5043;41.766;26.204;2023-05-10T14:33:12;1.50;;;1.40;;
10007;SDS011;5043;41.766;26.204;2023-05-10T14:35:38;1.80;;;1.40;;
10007;SDS011;5043;41.766;26.204;2023-05-10T14:38:04;2.60;;;1.42;;
10007;SDS011;5043;41.766;26.204;2023-05-10T14:40:29;3.10;;;1.55;;
10007;SDS011;5043;41.766;26.204;2023-05-10T14:42:55;5.07;;;4.13;;
10007;SDS011;5043;41.766;26.204;2023-05-10T14:45:21;4.47;;;2.35;;
10007;SDS011;5043;41.766;26.204;2023-05-10T14:47:47;5.57;;;2.13;;
10007;SDS011;5043;41.766;26.204;2023-05-10T14:50:14;4.78;;;1.85;;
10007;SDS011;5043;41.766;26.204;2023-05-10T14:56:02;5.68;;;1.60;;
10007;SDS011;5043;41.766;26.204;2023-05-10T14:58:28;3.65;;;2.10;;
10007;SDS011;5043;41.766;26.204;2023-05-10T15:00:53;4.40;;;1.80;;
10007;SDS011;5043;41.766;26.204;2023-05-10T15:03:19;4.32;;;1.90;;
10007;SDS011;5043;41.766;26.204;2023-05-10T15:05:44;1.83;;;1.70;;
10007;SDS011;5043;41.766;26.204;2023-05-10T15:08:10;3.22;;;2.00;;
10007;SDS011;5043;41.766;26.204;2023-05-10T15:10:37;2.17;;;1.52;;
10007;SDS011;5043;41.766;26.204;2023-05-10T15:13:04;2.55;;;1.95;;
10007;SDS011;5043;41.766;26.204;2023-05-10T15:15:30;4.10;;;2.05;;
10007;SDS011;5043;41.766;26.204;2023-05-10T15:17:55;2.58;;;1.77;;
10007;SDS011;5043;41.766;26.204;2023-05-10T15:20:21;2.28;;;1.88;;
10007;SDS011;5043;41.766;26.204;2023-05-10T15:22:46;6.72;;;1.65;;
10007;SDS011;5043;41.766;26.204;2023-05-10T15:25:12;2.17;;;1.98;;
10007;SDS011;5043;41.766;26.204;2023-05-10T15:27:40;3.00;;;1.90;;
10007;SDS011;5043;41.766;26.204;2023-05-10T15:30:06;1.67;;;1.55;;